Terminal Aerodrome Forecast
Issued by NWS

Home | Current Version | Previous Version | Text Only | Print | Product List | Glossary On
Versions: 1 2 3 4 5 6 7 8 9 10 11 12 13 14 15 16 17 18 19
142
FTUS41 KILN 250259 AAA
TAFLCK
TAF AMD
KLCK 250259Z 2503/2524 19008KT P6SM FEW240
     FM250500 20010G24KT P6SM SCT220 WS020/22040KT
     FM251000 23008KT P6SM BKN080
     FM251500 26009G20KT P6SM BKN030
     FM252200 29010KT P6SM BKN040=

USA.gov is the U.S. government's official web portal to all federal, state and local government web resources and services.